Falconbridge, Canada
Current Conditions -  °F | °C
As of 3:00 AM on Wednesday 22 Oct 2014 (Local Time) from CYSB Reporting Station
Clear Clear  
Wind Chill: 23°   Ceiling: Unl
Heat Index: 32°   Visibility: 15mi
Dew Point: 30°   Wind: 13mph
Humidity: 93%   Direction: 40°NE
Pressure: 30.31"   Gusts: NA
Location:  46.58°N, 80.81°W
Report Text: CYSB 220700Z 04011KT 15SM SKC 00/M01 A3031 RMK FROIN SLP281
Loading
Personal Weather Stations






























Interactive Weather Map
Tropical Storm Tracking
New forecast layout! Learn more

10-Day Weather Forecast

Advertisements
Track Severe Weather on mobile